Terminal Aerodrome Forecast
Issued by NWS

Home | Current Version | Previous Version | Text Only | Print | Product List | Glossary On
Versions: 1 2 3 4 5 6 7 8 9 10 11 12 13 14 15 16
000
FTUS43 KSGF 282300 CCA
TAFJLN
TAF COR
KJLN 282347Z 2900/2924 23014G20KT P6SM VCTS SCT060CB BKN080
      TEMPO 2900/2902 TSRA BKN060CB
     FM290200 23008KT P6SM SCT050
     FM290600 25005KT P6SM SKC
     FM291500 33007KT P6SM SKC=

USA.gov is the U.S. government's official web portal to all federal, state and local government web resources and services.